sensor_id;sensor_type;location;lat;lon;timestamp;P1;durP1;ratioP1;P2;durP2;ratioP2
47519;SDS011;33252;48.122;11.538;2023-08-20T00:02:21;10.07;;;6.30;;
47519;SDS011;33252;48.122;11.538;2023-08-20T00:04:49;9.88;;;7.25;;
47519;SDS011;33252;48.122;11.538;2023-08-20T00:07:15;12.52;;;5.90;;
47519;SDS011;33252;48.122;11.538;2023-08-20T00:09:43;8.43;;;6.15;;
47519;SDS011;33252;48.122;11.538;2023-08-20T00:12:09;7.68;;;6.32;;
47519;SDS011;33252;48.122;11.538;2023-08-20T00:17:29;9.82;;;5.45;;
47519;SDS011;33252;48.122;11.538;2023-08-20T00:19:59;7.95;;;5.88;;
47519;SDS011;33252;48.122;11.538;2023-08-20T00:22:25;8.82;;;4.88;;
47519;SDS011;33252;48.122;11.538;2023-08-20T00:24:52;12.15;;;5.47;;
47519;SDS011;33252;48.122;11.538;2023-08-20T00:27:18;6.97;;;5.53;;
47519;SDS011;33252;48.122;11.538;2023-08-20T00:29:45;6.57;;;5.07;;
47519;SDS011;33252;48.122;11.538;2023-08-20T00:32:10;8.18;;;5.47;;
47519;SDS011;33252;48.122;11.538;2023-08-20T00:34:36;9.88;;;5.18;;
47519;SDS011;33252;48.122;11.538;2023-08-20T00:37:02;7.13;;;5.28;;
47519;SDS011;33252;48.122;11.538;2023-08-20T00:39:28;8.20;;;5.03;;
47519;SDS011;33252;48.122;11.538;2023-08-20T00:41:54;12.50;;;5.85;;
47519;SDS011;33252;48.122;11.538;2023-08-20T00:44:20;8.35;;;5.22;;
47519;SDS011;33252;48.122;11.538;2023-08-20T00:46:46;9.18;;;5.47;;
47519;SDS011;33252;48.122;11.538;2023-08-20T00:49:12;7.00;;;6.28;;
47519;SDS011;33252;48.122;11.538;2023-08-20T00:51:38;7.68;;;5.90;;
47519;SDS011;33252;48.122;11.538;2023-08-20T00:54:04;6.55;;;5.40;;
47519;SDS011;33252;48.122;11.538;2023-08-20T00:56:30;6.57;;;5.22;;
47519;SDS011;33252;48.122;11.538;2023-08-20T00:58:56;6.75;;;5.50;;
47519;SDS011;33252;48.122;11.538;2023-08-20T01:01:22;7.45;;;5.70;;
47519;SDS011;33252;48.122;11.538;2023-08-20T01:03:48;11.57;;;6.97;;
47519;SDS011;33252;48.122;11.538;2023-08-20T01:08:42;9.27;;;5.45;;
47519;SDS011;33252;48.122;11.538;2023-08-20T01:11:14;12.05;;;6.00;;
47519;SDS011;33252;48.122;11.538;2023-08-20T01:13:46;9.77;;;5.55;;
47519;SDS011;33252;48.122;11.538;2023-08-20T01:16:12;8.50;;;5.70;;
47519;SDS011;33252;48.122;11.538;2023-08-20T01:18:37;9.32;;;5.40;;
47519;SDS011;33252;48.122;11.538;2023-08-20T01:21:05;7.78;;;5.50;;
47519;SDS011;33252;48.122;11.538;2023-08-20T01:29:32;9.88;;;5.88;;
47519;SDS011;33252;48.122;11.538;2023-08-20T01:31:58;8.43;;;5.57;;
47519;SDS011;33252;48.122;11.538;2023-08-20T01:34:24;14.45;;;6.18;;
47519;SDS011;33252;48.122;11.538;2023-08-20T01:36:51;11.75;;;5.70;;
47519;SDS011;33252;48.122;11.538;2023-08-20T01:39:17;7.90;;;5.60;;
47519;SDS011;33252;48.122;11.538;2023-08-20T01:41:43;7.72;;;5.55;;
47519;SDS011;33252;48.122;11.538;2023-08-20T01:44:09;7.05;;;5.82;;
47519;SDS011;33252;48.122;11.538;2023-08-20T01:46:35;11.15;;;6.63;;
47519;SDS011;33252;48.122;11.538;2023-08-20T01:49:00;6.38;;;5.63;;
47519;SDS011;33252;48.122;11.538;2023-08-20T01:51:26;9.52;;;6.20;;
47519;SDS011;33252;48.122;11.538;2023-08-20T01:53:52;8.00;;;5.20;;
47519;SDS011;33252;48.122;11.538;2023-08-20T01:56:17;8.77;;;5.88;;
47519;SDS011;33252;48.122;11.538;2023-08-20T01:58:43;8.40;;;5.53;;
47519;SDS011;33252;48.122;11.538;2023-08-20T02:01:09;16.33;;;5.68;;
47519;SDS011;33252;48.122;11.538;2023-08-20T02:03:36;10.07;;;6.20;;
47519;SDS011;33252;48.122;11.538;2023-08-20T02:06:03;9.77;;;6.22;;
47519;SDS011;33252;48.122;11.538;2023-08-20T02:08:28;10.70;;;6.45;;
47519;SDS011;33252;48.122;11.538;2023-08-20T02:11:03;8.70;;;6.05;;
47519;SDS011;33252;48.122;11.538;2023-08-20T02:13:30;12.15;;;6.40;;
47519;SDS011;33252;48.122;11.538;2023-08-20T02:16:02;9.95;;;6.45;;
47519;SDS011;33252;48.122;11.538;2023-08-20T02:18:29;9.25;;;5.82;;
47519;SDS011;33252;48.122;11.538;2023-08-20T02:20:55;7.95;;;6.20;;
47519;SDS011;33252;48.122;11.538;2023-08-20T02:23:21;11.32;;;6.00;;
47519;SDS011;33252;48.122;11.538;2023-08-20T02:25:47;8.40;;;6.35;;
47519;SDS011;33252;48.122;11.538;2023-08-20T02:28:13;7.57;;;5.75;;
47519;SDS011;33252;48.122;11.538;2023-08-20T02:30:40;6.90;;;5.25;;
47519;SDS011;33252;48.122;11.538;2023-08-20T02:33:10;11.68;;;6.47;;
47519;SDS011;33252;48.122;11.538;2023-08-20T02:35:39;10.00;;;6.90;;
47519;SDS011;33252;48.122;11.538;2023-08-20T02:38:05;8.77;;;6.90;;
47519;SDS011;33252;48.122;11.538;2023-08-20T02:40:31;8.18;;;6.70;;
47519;SDS011;33252;48.122;11.538;2023-08-20T02:42:57;8.23;;;5.93;;
47519;SDS011;33252;48.122;11.538;2023-08-20T02:45:23;10.40;;;6.28;;
47519;SDS011;33252;48.122;11.538;2023-08-20T02:47:49;8.13;;;6.60;;
47519;SDS011;33252;48.122;11.538;2023-08-20T02:50:14;15.73;;;9.73;;
47519;SDS011;33252;48.122;11.538;2023-08-20T02:52:45;16.13;;;10.32;;
47519;SDS011;33252;48.122;11.538;2023-08-20T02:55:10;10.38;;;7.80;;
47519;SDS011;33252;48.122;11.538;2023-08-20T02:57:36;12.20;;;6.43;;
47519;SDS011;33252;48.122;11.538;2023-08-20T03:00:02;8.27;;;6.22;;
47519;SDS011;33252;48.122;11.538;2023-08-20T03:02:29;8.70;;;6.18;;
47519;SDS011;33252;48.122;11.538;2023-08-20T03:04:55;9.80;;;7.13;;
47519;SDS011;33252;48.122;11.538;2023-08-20T03:07:21;10.63;;;6.82;;
47519;SDS011;33252;48.122;11.538;2023-08-20T03:09:47;6.88;;;6.18;;
47519;SDS011;33252;48.122;11.538;2023-08-20T03:12:13;10.02;;;6.50;;
47519;SDS011;33252;48.122;11.538;2023-08-20T03:14:39;7.70;;;6.50;;
47519;SDS011;33252;48.122;11.538;2023-08-20T03:17:04;6.90;;;5.80;;
47519;SDS011;33252;48.122;11.538;2023-08-20T03:19:32;10.38;;;7.07;;
47519;SDS011;33252;48.122;11.538;2023-08-20T03:21:59;10.52;;;7.38;;
47519;SDS011;33252;48.122;11.538;2023-08-20T03:24:25;9.88;;;5.90;;
47519;SDS011;33252;48.122;11.538;2023-08-20T03:26:50;8.77;;;6.07;;
47519;SDS011;33252;48.122;11.538;2023-08-20T03:29:16;9.57;;;6.10;;
47519;SDS011;33252;48.122;11.538;2023-08-20T03:31:41;9.55;;;6.70;;
47519;SDS011;33252;48.122;11.538;2023-08-20T03:34:07;8.02;;;5.50;;
47519;SDS011;33252;48.122;11.538;2023-08-20T03:36:34;16.30;;;9.52;;
47519;SDS011;33252;48.122;11.538;2023-08-20T03:39:00;9.65;;;8.60;;
47519;SDS011;33252;48.122;11.538;2023-08-20T03:41:26;9.60;;;7.28;;
47519;SDS011;33252;48.122;11.538;2023-08-20T03:43:51;10.65;;;8.10;;
47519;SDS011;33252;48.122;11.538;2023-08-20T03:46:17;11.63;;;8.20;;
47519;SDS011;33252;48.122;11.538;2023-08-20T03:48:43;7.78;;;6.97;;
47519;SDS011;33252;48.122;11.538;2023-08-20T03:51:08;11.05;;;6.43;;
47519;SDS011;33252;48.122;11.538;2023-08-20T03:53:34;11.13;;;6.63;;
47519;SDS011;33252;48.122;11.538;2023-08-20T03:55:59;9.85;;;6.00;;
47519;SDS011;33252;48.122;11.538;2023-08-20T03:58:25;12.25;;;6.43;;
47519;SDS011;33252;48.122;11.538;2023-08-20T04:00:51;9.82;;;6.82;;
47519;SDS011;33252;48.122;11.538;2023-08-20T04:03:16;8.40;;;5.75;;
47519;SDS011;33252;48.122;11.538;2023-08-20T04:05:44;8.10;;;6.05;;
47519;SDS011;33252;48.122;11.538;2023-08-20T04:08:13;10.20;;;6.55;;
47519;SDS011;33252;48.122;11.538;2023-08-20T04:10:42;10.60;;;6.65;;
47519;SDS011;33252;48.122;11.538;2023-08-20T04:13:09;10.95;;;5.90;;
47519;SDS011;33252;48.122;11.538;2023-08-20T04:15:35;9.10;;;6.93;;
47519;SDS011;33252;48.122;11.538;2023-08-20T04:18:01;11.77;;;6.93;;
47519;SDS011;33252;48.122;11.538;2023-08-20T04:20:26;7.60;;;5.90;;
47519;SDS011;33252;48.122;11.538;2023-08-20T04:22:52;8.98;;;6.05;;
47519;SDS011;33252;48.122;11.538;2023-08-20T04:25:18;8.27;;;5.53;;
47519;SDS011;33252;48.122;11.538;2023-08-20T04:27:43;10.82;;;6.32;;
47519;SDS011;33252;48.122;11.538;2023-08-20T04:30:09;7.68;;;6.57;;
47519;SDS011;33252;48.122;11.538;2023-08-20T04:32:35;9.23;;;6.20;;
47519;SDS011;33252;48.122;11.538;2023-08-20T04:35:01;7.18;;;5.95;;
47519;SDS011;33252;48.122;11.538;2023-08-20T04:37:27;6.18;;;5.57;;
47519;SDS011;33252;48.122;11.538;2023-08-20T04:39:52;13.57;;;6.70;;
47519;SDS011;33252;48.122;11.538;2023-08-20T04:42:18;11.40;;;6.90;;
47519;SDS011;33252;48.122;11.538;2023-08-20T04:44:43;11.45;;;6.32;;
47519;SDS011;33252;48.122;11.538;2023-08-20T04:47:12;10.02;;;6.95;;
47519;SDS011;33252;48.122;11.538;2023-08-20T04:49:38;7.25;;;6.18;;
47519;SDS011;33252;48.122;11.538;2023-08-20T04:52:04;10.65;;;5.82;;
47519;SDS011;33252;48.122;11.538;2023-08-20T04:54:30;7.35;;;5.22;;
47519;SDS011;33252;48.122;11.538;2023-08-20T04:56:55;10.55;;;6.13;;
47519;SDS011;33252;48.122;11.538;2023-08-20T04:59:21;9.93;;;6.28;;
47519;SDS011;33252;48.122;11.538;2023-08-20T05:01:47;10.02;;;6.32;;
47519;SDS011;33252;48.122;11.538;2023-08-20T05:04:13;9.02;;;6.20;;
47519;SDS011;33252;48.122;11.538;2023-08-20T05:06:38;9.57;;;5.80;;
47519;SDS011;33252;48.122;11.538;2023-08-20T05:09:04;8.85;;;6.13;;
47519;SDS011;33252;48.122;11.538;2023-08-20T05:11:30;11.05;;;6.43;;
47519;SDS011;33252;48.122;11.538;2023-08-20T05:13:57;9.25;;;5.82;;
47519;SDS011;33252;48.122;11.538;2023-08-20T05:16:23;11.48;;;7.57;;
47519;SDS011;33252;48.122;11.538;2023-08-20T05:18:49;10.77;;;7.00;;
47519;SDS011;33252;48.122;11.538;2023-08-20T05:21:14;8.32;;;5.95;;
47519;SDS011;33252;48.122;11.538;2023-08-20T05:23:40;8.77;;;6.20;;
47519;SDS011;33252;48.122;11.538;2023-08-20T05:26:06;9.25;;;5.85;;
47519;SDS011;33252;48.122;11.538;2023-08-20T05:28:32;11.75;;;6.35;;
47519;SDS011;33252;48.122;11.538;2023-08-20T05:30:58;6.93;;;6.05;;
47519;SDS011;33252;48.122;11.538;2023-08-20T05:33:24;13.55;;;6.47;;
47519;SDS011;33252;48.122;11.538;2023-08-20T05:35:51;7.70;;;5.88;;
47519;SDS011;33252;48.122;11.538;2023-08-20T05:38:16;8.95;;;6.57;;
47519;SDS011;33252;48.122;11.538;2023-08-20T05:40:42;9.57;;;6.82;;
47519;SDS011;33252;48.122;11.538;2023-08-20T05:43:08;8.07;;;6.35;;
47519;SDS011;33252;48.122;11.538;2023-08-20T05:45:34;12.57;;;5.93;;
47519;SDS011;33252;48.122;11.538;2023-08-20T05:48:00;9.45;;;5.25;;
47519;SDS011;33252;48.122;11.538;2023-08-20T05:50:26;6.53;;;5.15;;
47519;SDS011;33252;48.122;11.538;2023-08-20T05:52:52;12.07;;;5.78;;
47519;SDS011;33252;48.122;11.538;2023-08-20T05:55:17;8.10;;;5.35;;
47519;SDS011;33252;48.122;11.538;2023-08-20T05:57:43;10.48;;;5.03;;
47519;SDS011;33252;48.122;11.538;2023-08-20T06:00:09;8.30;;;5.43;;
47519;SDS011;33252;48.122;11.538;2023-08-20T06:02:35;7.80;;;5.47;;
47519;SDS011;33252;48.122;11.538;2023-08-20T06:05:02;10.63;;;5.55;;
47519;SDS011;33252;48.122;11.538;2023-08-20T06:07:29;8.73;;;5.88;;
47519;SDS011;33252;48.122;11.538;2023-08-20T06:09:55;10.15;;;5.85;;
47519;SDS011;33252;48.122;11.538;2023-08-20T06:12:22;9.98;;;5.63;;
47519;SDS011;33252;48.122;11.538;2023-08-20T06:14:48;9.13;;;5.53;;
47519;SDS011;33252;48.122;11.538;2023-08-20T06:17:14;8.88;;;5.15;;
47519;SDS011;33252;48.122;11.538;2023-08-20T06:19:40;6.38;;;5.28;;
47519;SDS011;33252;48.122;11.538;2023-08-20T06:22:05;8.20;;;5.88;;
47519;SDS011;33252;48.122;11.538;2023-08-20T06:24:31;7.88;;;4.38;;
47519;SDS011;33252;48.122;11.538;2023-08-20T06:26:57;9.80;;;4.68;;
47519;SDS011;33252;48.122;11.538;2023-08-20T06:29:22;8.30;;;4.65;;
47519;SDS011;33252;48.122;11.538;2023-08-20T06:31:48;7.85;;;5.15;;
47519;SDS011;33252;48.122;11.538;2023-08-20T06:34:15;8.50;;;5.32;;
47519;SDS011;33252;48.122;11.538;2023-08-20T06:36:41;7.38;;;5.32;;
47519;SDS011;33252;48.122;11.538;2023-08-20T06:39:07;7.30;;;4.72;;
47519;SDS011;33252;48.122;11.538;2023-08-20T06:41:33;9.93;;;5.13;;
47519;SDS011;33252;48.122;11.538;2023-08-20T06:43:59;7.03;;;4.45;;
47519;SDS011;33252;48.122;11.538;2023-08-20T06:46:24;6.15;;;4.57;;
47519;SDS011;33252;48.122;11.538;2023-08-20T06:48:50;8.45;;;4.60;;
47519;SDS011;33252;48.122;11.538;2023-08-20T06:51:18;7.93;;;5.07;;
47519;SDS011;33252;48.122;11.538;2023-08-20T06:53:45;12.23;;;5.18;;
47519;SDS011;33252;48.122;11.538;2023-08-20T06:56:11;10.98;;;5.03;;
47519;SDS011;33252;48.122;11.538;2023-08-20T06:58:37;8.13;;;4.50;;
47519;SDS011;33252;48.122;11.538;2023-08-20T07:01:04;7.30;;;5.22;;
47519;SDS011;33252;48.122;11.538;2023-08-20T07:03:33;7.60;;;4.88;;
47519;SDS011;33252;48.122;11.538;2023-08-20T07:05:59;12.25;;;4.95;;
47519;SDS011;33252;48.122;11.538;2023-08-20T07:08:25;8.38;;;5.85;;
47519;SDS011;33252;48.122;11.538;2023-08-20T07:10:51;7.13;;;4.97;;
47519;SDS011;33252;48.122;11.538;2023-08-20T07:13:17;10.00;;;4.40;;
47519;SDS011;33252;48.122;11.538;2023-08-20T07:15:42;9.23;;;4.53;;
47519;SDS011;33252;48.122;11.538;2023-08-20T07:18:08;7.65;;;4.93;;
47519;SDS011;33252;48.122;11.538;2023-08-20T07:20:35;6.70;;;4.40;;
47519;SDS011;33252;48.122;11.538;2023-08-20T07:23:00;11.20;;;4.88;;
47519;SDS011;33252;48.122;11.538;2023-08-20T07:25:26;6.88;;;4.75;;
47519;SDS011;33252;48.122;11.538;2023-08-20T07:27:52;7.22;;;4.20;;
47519;SDS011;33252;48.122;11.538;2023-08-20T07:30:17;4.82;;;4.25;;
47519;SDS011;33252;48.122;11.538;2023-08-20T07:32:43;6.80;;;4.75;;
47519;SDS011;33252;48.122;11.538;2023-08-20T07:35:09;5.13;;;4.22;;
47519;SDS011;33252;48.122;11.538;2023-08-20T07:37:35;10.15;;;5.45;;
47519;SDS011;33252;48.122;11.538;2023-08-20T07:40:00;8.65;;;4.80;;
47519;SDS011;33252;48.122;11.538;2023-08-20T07:42:26;8.75;;;5.75;;
47519;SDS011;33252;48.122;11.538;2023-08-20T07:44:52;6.60;;;4.53;;
47519;SDS011;33252;48.122;11.538;2023-08-20T07:47:18;7.55;;;4.78;;
47519;SDS011;33252;48.122;11.538;2023-08-20T07:49:43;5.45;;;4.40;;
47519;SDS011;33252;48.122;11.538;2023-08-20T07:52:09;9.15;;;5.53;;
47519;SDS011;33252;48.122;11.538;2023-08-20T07:54:35;4.93;;;3.85;;
47519;SDS011;33252;48.122;11.538;2023-08-20T07:57:00;9.25;;;3.85;;
47519;SDS011;33252;48.122;11.538;2023-08-20T07:59:26;12.15;;;5.30;;
47519;SDS011;33252;48.122;11.538;2023-08-20T08:01:51;9.82;;;4.22;;
47519;SDS011;33252;48.122;11.538;2023-08-20T08:04:17;11.13;;;4.93;;
47519;SDS011;33252;48.122;11.538;2023-08-20T08:06:43;8.35;;;4.15;;
47519;SDS011;33252;48.122;11.538;2023-08-20T08:09:18;6.35;;;4.38;;
47519;SDS011;33252;48.122;11.538;2023-08-20T08:11:46;10.02;;;4.78;;
47519;SDS011;33252;48.122;11.538;2023-08-20T08:14:12;9.38;;;4.45;;
47519;SDS011;33252;48.122;11.538;2023-08-20T08:16:37;9.05;;;4.15;;
47519;SDS011;33252;48.122;11.538;2023-08-20T08:19:03;6.63;;;4.68;;
47519;SDS011;33252;48.122;11.538;2023-08-20T08:21:29;6.55;;;4.55;;
47519;SDS011;33252;48.122;11.538;2023-08-20T08:23:54;6.18;;;4.30;;
47519;SDS011;33252;48.122;11.538;2023-08-20T08:26:20;9.77;;;4.18;;
47519;SDS011;33252;48.122;11.538;2023-08-20T08:28:46;9.50;;;4.15;;
47519;SDS011;33252;48.122;11.538;2023-08-20T08:31:11;6.65;;;4.07;;
47519;SDS011;33252;48.122;11.538;2023-08-20T08:33:37;6.95;;;4.22;;
47519;SDS011;33252;48.122;11.538;2023-08-20T08:36:03;5.97;;;4.60;;
47519;SDS011;33252;48.122;11.538;2023-08-20T08:38:29;8.70;;;4.60;;
47519;SDS011;33252;48.122;11.538;2023-08-20T08:40:55;7.13;;;4.78;;
47519;SDS011;33252;48.122;11.538;2023-08-20T08:43:21;6.93;;;4.15;;
47519;SDS011;33252;48.122;11.538;2023-08-20T08:45:47;6.22;;;4.10;;
47519;SDS011;33252;48.122;11.538;2023-08-20T08:48:15;5.93;;;4.45;;
47519;SDS011;33252;48.122;11.538;2023-08-20T08:50:42;8.52;;;5.05;;
47519;SDS011;33252;48.122;11.538;2023-08-20T08:53:08;7.82;;;4.57;;
47519;SDS011;33252;48.122;11.538;2023-08-20T08:55:35;8.65;;;5.82;;
47519;SDS011;33252;48.122;11.538;2023-08-20T08:58:02;10.90;;;4.55;;
47519;SDS011;33252;48.122;11.538;2023-08-20T09:00:28;5.43;;;4.38;;
47519;SDS011;33252;48.122;11.538;2023-08-20T09:02:56;6.00;;;4.57;;
47519;SDS011;33252;48.122;11.538;2023-08-20T09:05:21;6.60;;;3.67;;
47519;SDS011;33252;48.122;11.538;2023-08-20T09:07:47;4.70;;;3.72;;
47519;SDS011;33252;48.122;11.538;2023-08-20T09:10:21;4.93;;;4.00;;
47519;SDS011;33252;48.122;11.538;2023-08-20T09:12:47;5.78;;;4.57;;
47519;SDS011;33252;48.122;11.538;2023-08-20T09:15:13;6.32;;;3.55;;
47519;SDS011;33252;48.122;11.538;2023-08-20T09:17:42;6.80;;;4.55;;
47519;SDS011;33252;48.122;11.538;2023-08-20T09:20:07;7.95;;;4.93;;
47519;SDS011;33252;48.122;11.538;2023-08-20T09:22:34;5.03;;;3.85;;
47519;SDS011;33252;48.122;11.538;2023-08-20T09:25:01;4.75;;;4.15;;
47519;SDS011;33252;48.122;11.538;2023-08-20T09:27:27;6.68;;;4.97;;
47519;SDS011;33252;48.122;11.538;2023-08-20T09:29:54;6.38;;;4.43;;
47519;SDS011;33252;48.122;11.538;2023-08-20T09:32:22;8.85;;;4.55;;
47519;SDS011;33252;48.122;11.538;2023-08-20T09:34:49;7.35;;;4.55;;
47519;SDS011;33252;48.122;11.538;2023-08-20T09:37:17;6.82;;;4.95;;
47519;SDS011;33252;48.122;11.538;2023-08-20T09:39:45;7.03;;;4.28;;
47519;SDS011;33252;48.122;11.538;2023-08-20T09:42:11;6.70;;;4.72;;
47519;SDS011;33252;48.122;11.538;2023-08-20T09:44:38;5.72;;;4.75;;
47519;SDS011;33252;48.122;11.538;2023-08-20T09:47:09;4.32;;;3.92;;
47519;SDS011;33252;48.122;11.538;2023-08-20T09:49:42;6.70;;;3.78;;
47519;SDS011;33252;48.122;11.538;2023-08-20T09:52:31;7.03;;;4.78;;
47519;SDS011;33252;48.122;11.538;2023-08-20T09:55:16;3.60;;;3.30;;
47519;SDS011;33252;48.122;11.538;2023-08-20T09:57:45;3.72;;;3.42;;
47519;SDS011;33252;48.122;11.538;2023-08-20T10:00:13;6.55;;;4.57;;
47519;SDS011;33252;48.122;11.538;2023-08-20T10:02:39;5.30;;;3.50;;
47519;SDS011;33252;48.122;11.538;2023-08-20T10:05:09;6.40;;;3.85;;
47519;SDS011;33252;48.122;11.538;2023-08-20T10:07:35;5.15;;;3.00;;
47519;SDS011;33252;48.122;11.538;2023-08-20T10:10:03;7.97;;;3.80;;
47519;SDS011;33252;48.122;11.538;2023-08-20T10:12:30;6.22;;;4.30;;
47519;SDS011;33252;48.122;11.538;2023-08-20T10:14:56;5.57;;;3.47;;
47519;SDS011;33252;48.122;11.538;2023-08-20T10:17:23;5.55;;;4.10;;
47519;SDS011;33252;48.122;11.538;2023-08-20T10:19:52;4.57;;;3.90;;
47519;SDS011;33252;48.122;11.538;2023-08-20T10:22:18;8.23;;;3.97;;
47519;SDS011;33252;48.122;11.538;2023-08-20T10:24:48;4.28;;;3.58;;
47519;SDS011;33252;48.122;11.538;2023-08-20T10:27:26;4.03;;;3.45;;
47519;SDS011;33252;48.122;11.538;2023-08-20T10:29:53;6.15;;;4.15;;
47519;SDS011;33252;48.122;11.538;2023-08-20T10:32:20;8.10;;;3.72;;
47519;SDS011;33252;48.122;11.538;2023-08-20T10:35:06;5.10;;;3.22;;
47519;SDS011;33252;48.122;11.538;2023-08-20T10:37:33;5.85;;;3.25;;
47519;SDS011;33252;48.122;11.538;2023-08-20T10:39:59;4.75;;;3.67;;
47519;SDS011;33252;48.122;11.538;2023-08-20T10:42:26;4.47;;;3.45;;
47519;SDS011;33252;48.122;11.538;2023-08-20T10:45:05;4.20;;;3.38;;
47519;SDS011;33252;48.122;11.538;2023-08-20T10:50:16;10.50;;;4.00;;
47519;SDS011;33252;48.122;11.538;2023-08-20T10:52:47;4.20;;;3.42;;
47519;SDS011;33252;48.122;11.538;2023-08-20T10:55:14;4.13;;;3.70;;
47519;SDS011;33252;48.122;11.538;2023-08-20T10:57:40;4.57;;;2.95;;
47519;SDS011;33252;48.122;11.538;2023-08-20T11:00:06;6.22;;;3.25;;
47519;SDS011;33252;48.122;11.538;2023-08-20T11:02:37;6.15;;;4.15;;
47519;SDS011;33252;48.122;11.538;2023-08-20T11:05:16;4.32;;;3.45;;
47519;SDS011;33252;48.122;11.538;2023-08-20T11:07:46;8.95;;;4.07;;
47519;SDS011;33252;48.122;11.538;2023-08-20T11:10:13;5.07;;;3.47;;
47519;SDS011;33252;48.122;11.538;2023-08-20T11:12:43;5.18;;;3.97;;
47519;SDS011;33252;48.122;11.538;2023-08-20T11:15:10;6.40;;;4.35;;
47519;SDS011;33252;48.122;11.538;2023-08-20T11:17:40;4.03;;;3.63;;
47519;SDS011;33252;48.122;11.538;2023-08-20T11:20:15;4.32;;;3.53;;
47519;SDS011;33252;48.122;11.538;2023-08-20T11:22:40;4.22;;;3.90;;
47519;SDS011;33252;48.122;11.538;2023-08-20T11:25:15;4.07;;;3.50;;
47519;SDS011;33252;48.122;11.538;2023-08-20T11:27:44;4.45;;;4.05;;
47519;SDS011;33252;48.122;11.538;2023-08-20T11:30:10;3.80;;;3.50;;
47519;SDS011;33252;48.122;11.538;2023-08-20T11:32:39;6.03;;;4.28;;
47519;SDS011;33252;48.122;11.538;2023-08-20T11:35:05;4.22;;;3.83;;
47519;SDS011;33252;48.122;11.538;2023-08-20T11:37:32;4.07;;;3.70;;
47519;SDS011;33252;48.122;11.538;2023-08-20T11:39:58;5.80;;;4.35;;
47519;SDS011;33252;48.122;11.538;2023-08-20T11:42:24;4.28;;;3.80;;
47519;SDS011;33252;48.122;11.538;2023-08-20T11:44:50;4.10;;;3.70;;
47519;SDS011;33252;48.122;11.538;2023-08-20T11:47:19;5.45;;;3.55;;
47519;SDS011;33252;48.122;11.538;2023-08-20T11:49:45;5.30;;;3.97;;
47519;SDS011;33252;48.122;11.538;2023-08-20T11:52:11;3.92;;;3.42;;
47519;SDS011;33252;48.122;11.538;2023-08-20T11:54:42;3.37;;;3.07;;
47519;SDS011;33252;48.122;11.538;2023-08-20T11:57:08;3.95;;;3.63;;
47519;SDS011;33252;48.122;11.538;2023-08-20T11:59:33;5.82;;;3.47;;
47519;SDS011;33252;48.122;11.538;2023-08-20T12:02:00;6.40;;;3.88;;
47519;SDS011;33252;48.122;11.538;2023-08-20T12:04:28;4.90;;;3.55;;
47519;SDS011;33252;48.122;11.538;2023-08-20T12:07:05;4.15;;;3.65;;
47519;SDS011;33252;48.122;11.538;2023-08-20T12:09:31;3.85;;;3.22;;
47519;SDS011;33252;48.122;11.538;2023-08-20T12:11:58;5.25;;;3.45;;
47519;SDS011;33252;48.122;11.538;2023-08-20T12:14:23;6.95;;;3.67;;
47519;SDS011;33252;48.122;11.538;2023-08-20T12:16:49;5.20;;;3.20;;
47519;SDS011;33252;48.122;11.538;2023-08-20T12:19:18;5.18;;;3.17;;
47519;SDS011;33252;48.122;11.538;2023-08-20T12:21:44;5.55;;;3.63;;
47519;SDS011;33252;48.122;11.538;2023-08-20T12:24:10;7.28;;;3.85;;
47519;SDS011;33252;48.122;11.538;2023-08-20T12:26:37;4.88;;;3.45;;
47519;SDS011;33252;48.122;11.538;2023-08-20T12:29:05;7.38;;;3.40;;
47519;SDS011;33252;48.122;11.538;2023-08-20T12:31:31;5.47;;;2.88;;
47519;SDS011;33252;48.122;11.538;2023-08-20T12:33:58;4.68;;;3.67;;
47519;SDS011;33252;48.122;11.538;2023-08-20T12:36:24;5.63;;;3.60;;
47519;SDS011;33252;48.122;11.538;2023-08-20T12:38:49;5.20;;;3.40;;
47519;SDS011;33252;48.122;11.538;2023-08-20T12:41:15;6.15;;;3.38;;
47519;SDS011;33252;48.122;11.538;2023-08-20T12:43:41;8.23;;;3.97;;
47519;SDS011;33252;48.122;11.538;2023-08-20T12:46:07;4.22;;;3.60;;
47519;SDS011;33252;48.122;11.538;2023-08-20T12:48:33;3.88;;;3.33;;
47519;SDS011;33252;48.122;11.538;2023-08-20T12:50:58;4.63;;;3.78;;
47519;SDS011;33252;48.122;11.538;2023-08-20T12:53:24;5.32;;;3.40;;
47519;SDS011;33252;48.122;11.538;2023-08-20T12:55:50;6.20;;;4.13;;
47519;SDS011;33252;48.122;11.538;2023-08-20T12:58:15;5.47;;;4.32;;
47519;SDS011;33252;48.122;11.538;2023-08-20T13:00:41;3.90;;;3.47;;
47519;SDS011;33252;48.122;11.538;2023-08-20T13:03:07;5.80;;;3.80;;
47519;SDS011;33252;48.122;11.538;2023-08-20T13:05:35;5.53;;;3.72;;
47519;SDS011;33252;48.122;11.538;2023-08-20T13:08:02;4.45;;;3.25;;
47519;SDS011;33252;48.122;11.538;2023-08-20T13:10:28;3.95;;;3.33;;
47519;SDS011;33252;48.122;11.538;2023-08-20T13:12:54;4.97;;;3.45;;
47519;SDS011;33252;48.122;11.538;2023-08-20T13:15:25;4.37;;;3.60;;
47519;SDS011;33252;48.122;11.538;2023-08-20T13:17:51;4.30;;;3.63;;
47519;SDS011;33252;48.122;11.538;2023-08-20T13:20:16;7.60;;;3.42;;
47519;SDS011;33252;48.122;11.538;2023-08-20T13:22:47;6.00;;;2.75;;
47519;SDS011;33252;48.122;11.538;2023-08-20T13:25:13;5.80;;;3.42;;
47519;SDS011;33252;48.122;11.538;2023-08-20T13:27:39;3.95;;;3.30;;
47519;SDS011;33252;48.122;11.538;2023-08-20T13:30:06;3.97;;;3.67;;
47519;SDS011;33252;48.122;11.538;2023-08-20T13:32:33;4.80;;;3.22;;
47519;SDS011;33252;48.122;11.538;2023-08-20T13:34:59;6.43;;;3.30;;
47519;SDS011;33252;48.122;11.538;2023-08-20T13:37:25;5.50;;;3.10;;
47519;SDS011;33252;48.122;11.538;2023-08-20T13:39:51;4.55;;;2.83;;
47519;SDS011;33252;48.122;11.538;2023-08-20T13:42:16;4.43;;;2.97;;
47519;SDS011;33252;48.122;11.538;2023-08-20T13:44:42;4.82;;;3.53;;
47519;SDS011;33252;48.122;11.538;2023-08-20T13:47:08;5.40;;;4.10;;
47519;SDS011;33252;48.122;11.538;2023-08-20T13:49:34;3.60;;;3.30;;
47519;SDS011;33252;48.122;11.538;2023-08-20T13:51:59;5.88;;;4.80;;
47519;SDS011;33252;48.122;11.538;2023-08-20T13:54:25;4.25;;;3.40;;
47519;SDS011;33252;48.122;11.538;2023-08-20T13:56:51;3.20;;;2.90;;
47519;SDS011;33252;48.122;11.538;2023-08-20T13:59:16;5.25;;;3.83;;
47519;SDS011;33252;48.122;11.538;2023-08-20T14:01:42;5.25;;;4.20;;
47519;SDS011;33252;48.122;11.538;2023-08-20T14:04:08;6.30;;;3.65;;
47519;SDS011;33252;48.122;11.538;2023-08-20T14:06:33;4.50;;;3.20;;
47519;SDS011;33252;48.122;11.538;2023-08-20T14:08:59;3.60;;;3.22;;
47519;SDS011;33252;48.122;11.538;2023-08-20T14:11:26;6.20;;;4.10;;
47519;SDS011;33252;48.122;11.538;2023-08-20T14:13:52;4.45;;;3.30;;
47519;SDS011;33252;48.122;11.538;2023-08-20T14:16:17;3.45;;;3.15;;
47519;SDS011;33252;48.122;11.538;2023-08-20T14:18:43;5.13;;;3.22;;
47519;SDS011;33252;48.122;11.538;2023-08-20T14:21:08;4.25;;;3.70;;
47519;SDS011;33252;48.122;11.538;2023-08-20T14:23:34;4.60;;;3.70;;
47519;SDS011;33252;48.122;11.538;2023-08-20T14:26:00;5.25;;;3.78;;
47519;SDS011;33252;48.122;11.538;2023-08-20T14:28:25;4.47;;;3.45;;
47519;SDS011;33252;48.122;11.538;2023-08-20T14:30:51;5.80;;;3.75;;
47519;SDS011;33252;48.122;11.538;2023-08-20T14:33:19;3.50;;;3.20;;
47519;SDS011;33252;48.122;11.538;2023-08-20T14:35:45;5.07;;;3.85;;
47519;SDS011;33252;48.122;11.538;2023-08-20T14:38:11;3.83;;;3.50;;
47519;SDS011;33252;48.122;11.538;2023-08-20T14:40:40;3.97;;;3.45;;
47519;SDS011;33252;48.122;11.538;2023-08-20T14:43:08;3.55;;;3.22;;
47519;SDS011;33252;48.122;11.538;2023-08-20T14:45:34;4.60;;;3.70;;